sensor_id;sensor_type;location;lat;lon;timestamp;temperature;humidity
22503;DHT22;11418;48.118;9.992;2023-05-19T00:11:10;10.00;99.90
22503;DHT22;11418;48.118;9.992;2023-05-19T00:16:04;9.90;99.90
22503;DHT22;11418;48.118;9.992;2023-05-19T00:20:21;9.90;99.90
22503;DHT22;11418;48.118;9.992;2023-05-19T00:29:38;9.80;99.90
22503;DHT22;11418;48.118;9.992;2023-05-19T00:38:56;9.60;99.90
22503;DHT22;11418;48.118;9.992;2023-05-19T00:43:19;9.50;99.90
22503;DHT22;11418;48.118;9.992;2023-05-19T00:47:31;9.40;99.90
22503;DHT22;11418;48.118;9.992;2023-05-19T00:51:32;9.30;99.90
22503;DHT22;11418;48.118;9.992;2023-05-19T00:55:39;9.10;99.90
22503;DHT22;11418;48.118;9.992;2023-05-19T00:59:55;9.00;99.90
22503;DHT22;11418;48.118;9.992;2023-05-19T01:04:12;9.00;99.90
22503;DHT22;11418;48.118;9.992;2023-05-19T01:08:32;8.90;99.90
22503;DHT22;11418;48.118;9.992;2023-05-19T01:12:38;8.80;99.90
22503;DHT22;11418;48.118;9.992;2023-05-19T01:17:12;8.70;99.90
22503;DHT22;11418;48.118;9.992;2023-05-19T01:30:16;8.60;99.90
22503;DHT22;11418;48.118;9.992;2023-05-19T01:39:01;8.50;99.90
22503;DHT22;11418;48.118;9.992;2023-05-19T01:43:16;8.60;99.90
22503;DHT22;11418;48.118;9.992;2023-05-19T01:47:20;8.60;99.90
22503;DHT22;11418;48.118;9.992;2023-05-19T01:51:47;8.60;99.90
22503;DHT22;11418;48.118;9.992;2023-05-19T01:55:54;8.60;99.90
22503;DHT22;11418;48.118;9.992;2023-05-19T02:09:34;8.60;99.90
22503;DHT22;11418;48.118;9.992;2023-05-19T02:13:36;8.60;99.90
22503;DHT22;11418;48.118;9.992;2023-05-19T02:17:39;8.70;99.90
22503;DHT22;11418;48.118;9.992;2023-05-19T02:21:49;8.80;99.90
22503;DHT22;11418;48.118;9.992;2023-05-19T02:25:53;8.70;99.90
22503;DHT22;11418;48.118;9.992;2023-05-19T02:29:53;8.80;99.90
22503;DHT22;11418;48.118;9.992;2023-05-19T02:34:05;8.80;99.90
22503;DHT22;11418;48.118;9.992;2023-05-19T02:38:08;8.70;99.90
22503;DHT22;11418;48.118;9.992;2023-05-19T02:42:12;8.70;99.90
22503;DHT22;11418;48.118;9.992;2023-05-19T02:46:43;8.80;99.90
22503;DHT22;11418;48.118;9.992;2023-05-19T02:50:44;8.70;99.90
22503;DHT22;11418;48.118;9.992;2023-05-19T02:54:47;8.60;99.90
22503;DHT22;11418;48.118;9.992;2023-05-19T02:58:58;8.50;99.90
22503;DHT22;11418;48.118;9.992;2023-05-19T03:03:05;8.60;99.90
22503;DHT22;11418;48.118;9.992;2023-05-19T03:07:12;8.60;99.90
22503;DHT22;11418;48.118;9.992;2023-05-19T03:11:15;8.60;99.90
22503;DHT22;11418;48.118;9.992;2023-05-19T03:15:44;8.50;99.90
22503;DHT22;11418;48.118;9.992;2023-05-19T03:19:48;8.40;99.90
22503;DHT22;11418;48.118;9.992;2023-05-19T03:23:51;8.40;99.90
22503;DHT22;11418;48.118;9.992;2023-05-19T03:27:54;8.30;99.90
22503;DHT22;11418;48.118;9.992;2023-05-19T03:32:05;8.40;99.90
22503;DHT22;11418;48.118;9.992;2023-05-19T03:36:05;8.50;99.90
22503;DHT22;11418;48.118;9.992;2023-05-19T03:40:19;8.50;99.90
22503;DHT22;11418;48.118;9.992;2023-05-19T03:44:20;8.50;99.90
22503;DHT22;11418;48.118;9.992;2023-05-19T03:48:26;8.40;99.90
22503;DHT22;11418;48.118;9.992;2023-05-19T03:52:41;8.40;99.90
22503;DHT22;11418;48.118;9.992;2023-05-19T03:56:46;8.50;99.90
22503;DHT22;11418;48.118;9.992;2023-05-19T04:00:48;8.50;99.90
22503;DHT22;11418;48.118;9.992;2023-05-19T04:04:57;8.40;99.90
22503;DHT22;11418;48.118;9.992;2023-05-19T04:09:12;8.40;99.90
22503;DHT22;11418;48.118;9.992;2023-05-19T04:13:13;8.50;99.90
22503;DHT22;11418;48.118;9.992;2023-05-19T04:17:21;8.50;99.90
22503;DHT22;11418;48.118;9.992;2023-05-19T04:21:25;8.50;99.90
22503;DHT22;11418;48.118;9.992;2023-05-19T04:25:34;8.70;99.90
22503;DHT22;11418;48.118;9.992;2023-05-19T04:29:42;8.80;99.90
22503;DHT22;11418;48.118;9.992;2023-05-19T04:33:46;8.90;99.90
22503;DHT22;11418;48.118;9.992;2023-05-19T04:38:23;8.90;99.90
22503;DHT22;11418;48.118;9.992;2023-05-19T04:42:27;8.90;99.90
22503;DHT22;11418;48.118;9.992;2023-05-19T05:00:02;9.60;99.90
22503;DHT22;11418;48.118;9.992;2023-05-19T05:04:29;9.80;99.90
22503;DHT22;11418;48.118;9.992;2023-05-19T05:08:56;10.00;99.90
22503;DHT22;11418;48.118;9.992;2023-05-19T05:13:22;10.10;99.90
22503;DHT22;11418;48.118;9.992;2023-05-19T05:27:19;10.90;99.90
22503;DHT22;11418;48.118;9.992;2023-05-19T05:35:58;11.10;99.90
22503;DHT22;11418;48.118;9.992;2023-05-19T05:49:05;11.00;99.90
22503;DHT22;11418;48.118;9.992;2023-05-19T05:53:13;11.60;99.90
22503;DHT22;11418;48.118;9.992;2023-05-19T05:57:22;11.80;99.90
22503;DHT22;11418;48.118;9.992;2023-05-19T06:01:45;11.90;99.90
22503;DHT22;11418;48.118;9.992;2023-05-19T06:10:52;12.30;99.90
22503;DHT22;11418;48.118;9.992;2023-05-19T06:28:36;11.60;99.90
22503;DHT22;11418;48.118;9.992;2023-05-19T06:42:59;12.20;99.90
22503;DHT22;11418;48.118;9.992;2023-05-19T07:06:04;13.30;99.90
22503;DHT22;11418;48.118;9.992;2023-05-19T07:10:31;13.40;99.90
22503;DHT22;11418;48.118;9.992;2023-05-19T07:19:08;13.90;99.90
22503;DHT22;11418;48.118;9.992;2023-05-19T07:23:20;13.70;99.90
22503;DHT22;11418;48.118;9.992;2023-05-19T07:27:21;14.10;99.90
22503;DHT22;11418;48.118;9.992;2023-05-19T07:31:21;14.40;99.90
22503;DHT22;11418;48.118;9.992;2023-05-19T07:35:22;14.70;99.90
22503;DHT22;11418;48.118;9.992;2023-05-19T07:39:22;14.70;99.90
22503;DHT22;11418;48.118;9.992;2023-05-19T07:43:25;15.00;99.90
22503;DHT22;11418;48.118;9.992;2023-05-19T07:47:26;15.10;99.90
22503;DHT22;11418;48.118;9.992;2023-05-19T07:51:26;15.00;99.90
22503;DHT22;11418;48.118;9.992;2023-05-19T07:55:26;14.60;99.90
22503;DHT22;11418;48.118;9.992;2023-05-19T07:59:27;14.30;99.90
22503;DHT22;11418;48.118;9.992;2023-05-19T08:03:27;14.00;99.90
22503;DHT22;11418;48.118;9.992;2023-05-19T08:07:28;13.30;99.90
22503;DHT22;11418;48.118;9.992;2023-05-19T08:11:28;13.70;99.90
22503;DHT22;11418;48.118;9.992;2023-05-19T08:15:29;14.30;99.90
22503;DHT22;11418;48.118;9.992;2023-05-19T08:19:29;14.70;99.90
22503;DHT22;11418;48.118;9.992;2023-05-19T08:23:30;15.00;99.90
22503;DHT22;11418;48.118;9.992;2023-05-19T08:27:31;15.00;99.90
22503;DHT22;11418;48.118;9.992;2023-05-19T08:31:31;14.90;99.90
22503;DHT22;11418;48.118;9.992;2023-05-19T08:35:32;14.80;99.90
22503;DHT22;11418;48.118;9.992;2023-05-19T08:39:32;14.70;99.90
22503;DHT22;11418;48.118;9.992;2023-05-19T08:43:34;14.40;99.90
22503;DHT22;11418;48.118;9.992;2023-05-19T08:47:34;14.40;99.90
22503;DHT22;11418;48.118;9.992;2023-05-19T08:51:41;14.40;99.90
22503;DHT22;11418;48.118;9.992;2023-05-19T08:59:49;13.70;99.90
22503;DHT22;11418;48.118;9.992;2023-05-19T09:03:50;14.00;99.90
22503;DHT22;11418;48.118;9.992;2023-05-19T09:07:50;14.40;99.90
22503;DHT22;11418;48.118;9.992;2023-05-19T09:11:51;15.20;99.90
22503;DHT22;11418;48.118;9.992;2023-05-19T09:15:52;16.00;99.90
22503;DHT22;11418;48.118;9.992;2023-05-19T09:19:52;16.60;99.90
22503;DHT22;11418;48.118;9.992;2023-05-19T09:23:52;15.80;99.90
22503;DHT22;11418;48.118;9.992;2023-05-19T09:27:54;15.40;99.90
22503;DHT22;11418;48.118;9.992;2023-05-19T09:31:55;15.50;99.90
22503;DHT22;11418;48.118;9.992;2023-05-19T09:36:01;15.40;99.90
22503;DHT22;11418;48.118;9.992;2023-05-19T09:40:02;14.90;99.90
22503;DHT22;11418;48.118;9.992;2023-05-19T09:44:03;14.70;99.90
22503;DHT22;11418;48.118;9.992;2023-05-19T09:48:04;15.60;99.90
22503;DHT22;11418;48.118;9.992;2023-05-19T09:52:05;16.30;99.90
22503;DHT22;11418;48.118;9.992;2023-05-19T09:56:07;16.30;99.90
22503;DHT22;11418;48.118;9.992;2023-05-19T10:00:08;15.60;99.90
22503;DHT22;11418;48.118;9.992;2023-05-19T10:04:16;15.40;99.90
22503;DHT22;11418;48.118;9.992;2023-05-19T10:08:17;15.40;99.90
22503;DHT22;11418;48.118;9.992;2023-05-19T10:12:17;15.50;99.90
22503;DHT22;11418;48.118;9.992;2023-05-19T10:16:18;15.70;99.90
22503;DHT22;11418;48.118;9.992;2023-05-19T10:20:21;15.20;99.90
22503;DHT22;11418;48.118;9.992;2023-05-19T10:24:21;15.10;99.90
22503;DHT22;11418;48.118;9.992;2023-05-19T10:28:22;15.60;99.90
22503;DHT22;11418;48.118;9.992;2023-05-19T10:32:27;15.70;99.90
22503;DHT22;11418;48.118;9.992;2023-05-19T10:36:33;16.20;99.90
22503;DHT22;11418;48.118;9.992;2023-05-19T10:40:50;15.90;99.90
22503;DHT22;11418;48.118;9.992;2023-05-19T10:48:55;15.00;99.90
22503;DHT22;11418;48.118;9.992;2023-05-19T10:52:56;14.70;99.90
22503;DHT22;11418;48.118;9.992;2023-05-19T10:56:57;14.10;99.90
22503;DHT22;11418;48.118;9.992;2023-05-19T11:01:00;13.90;99.90
22503;DHT22;11418;48.118;9.992;2023-05-19T11:05:08;13.90;99.90
22503;DHT22;11418;48.118;9.992;2023-05-19T11:09:10;14.00;99.90
22503;DHT22;11418;48.118;9.992;2023-05-19T11:13:18;14.30;99.90
22503;DHT22;11418;48.118;9.992;2023-05-19T11:17:18;14.30;99.90
22503;DHT22;11418;48.118;9.992;2023-05-19T11:21:21;14.30;99.90
22503;DHT22;11418;48.118;9.992;2023-05-19T11:25:38;14.30;99.90
22503;DHT22;11418;48.118;9.992;2023-05-19T11:29:40;14.50;99.90
22503;DHT22;11418;48.118;9.992;2023-05-19T11:33:41;14.30;99.90
22503;DHT22;11418;48.118;9.992;2023-05-19T11:37:42;14.40;99.90
22503;DHT22;11418;48.118;9.992;2023-05-19T11:41:42;14.60;99.90
22503;DHT22;11418;48.118;9.992;2023-05-19T11:45:43;14.40;99.90
22503;DHT22;11418;48.118;9.992;2023-05-19T11:49:44;15.00;99.90
22503;DHT22;11418;48.118;9.992;2023-05-19T11:53:47;15.00;99.90
22503;DHT22;11418;48.118;9.992;2023-05-19T11:58:01;14.80;99.90
22503;DHT22;11418;48.118;9.992;2023-05-19T12:06:15;15.50;99.90
22503;DHT22;11418;48.118;9.992;2023-05-19T12:10:17;15.60;99.90
22503;DHT22;11418;48.118;9.992;2023-05-19T12:14:20;15.30;99.90
22503;DHT22;11418;48.118;9.992;2023-05-19T12:18:21;15.60;99.90
22503;DHT22;11418;48.118;9.992;2023-05-19T12:22:21;15.50;99.90
22503;DHT22;11418;48.118;9.992;2023-05-19T12:26:22;15.00;99.90
22503;DHT22;11418;48.118;9.992;2023-05-19T12:30:26;15.10;99.90
22503;DHT22;11418;48.118;9.992;2023-05-19T12:34:28;15.50;99.90
22503;DHT22;11418;48.118;9.992;2023-05-19T12:38:28;15.30;99.90
22503;DHT22;11418;48.118;9.992;2023-05-19T12:42:29;15.40;99.90
22503;DHT22;11418;48.118;9.992;2023-05-19T12:46:32;15.50;99.90
22503;DHT22;11418;48.118;9.992;2023-05-19T12:50:33;15.30;99.90
22503;DHT22;11418;48.118;9.992;2023-05-19T12:54:33;15.00;99.90
22503;DHT22;11418;48.118;9.992;2023-05-19T12:58:34;14.70;99.90
22503;DHT22;11418;48.118;9.992;2023-05-19T13:02:53;14.70;99.90
22503;DHT22;11418;48.118;9.992;2023-05-19T13:06:54;14.70;99.90
22503;DHT22;11418;48.118;9.992;2023-05-19T13:10:55;14.50;99.90
22503;DHT22;11418;48.118;9.992;2023-05-19T13:14:55;14.50;99.90
22503;DHT22;11418;48.118;9.992;2023-05-19T13:18:55;14.20;99.90
22503;DHT22;11418;48.118;9.992;2023-05-19T13:22:56;14.20;99.90
22503;DHT22;11418;48.118;9.992;2023-05-19T13:26:56;14.30;99.90
22503;DHT22;11418;48.118;9.992;2023-05-19T13:30:57;14.60;99.90
22503;DHT22;11418;48.118;9.992;2023-05-19T13:34:59;14.50;99.90
22503;DHT22;11418;48.118;9.992;2023-05-19T13:38:59;14.20;99.90
22503;DHT22;11418;48.118;9.992;2023-05-19T13:43:00;14.20;99.90
22503;DHT22;11418;48.118;9.992;2023-05-19T13:47:01;14.20;99.90
22503;DHT22;11418;48.118;9.992;2023-05-19T13:51:01;14.10;99.90
22503;DHT22;11418;48.118;9.992;2023-05-19T13:55:02;13.80;99.90
22503;DHT22;11418;48.118;9.992;2023-05-19T13:59:02;13.80;99.90
22503;DHT22;11418;48.118;9.992;2023-05-19T14:03:04;13.70;99.90
22503;DHT22;11418;48.118;9.992;2023-05-19T14:07:05;13.90;99.90
22503;DHT22;11418;48.118;9.992;2023-05-19T14:11:05;13.70;99.90
22503;DHT22;11418;48.118;9.992;2023-05-19T14:15:06;13.50;99.90
22503;DHT22;11418;48.118;9.992;2023-05-19T14:19:07;13.40;99.90
22503;DHT22;11418;48.118;9.992;2023-05-19T14:23:07;13.60;99.90
22503;DHT22;11418;48.118;9.992;2023-05-19T14:27:08;13.60;99.90
22503;DHT22;11418;48.118;9.992;2023-05-19T14:31:11;13.70;99.90
22503;DHT22;11418;48.118;9.992;2023-05-19T14:35:12;13.90;99.90
22503;DHT22;11418;48.118;9.992;2023-05-19T14:39:13;13.80;99.90
22503;DHT22;11418;48.118;9.992;2023-05-19T14:43:14;13.60;99.90
22503;DHT22;11418;48.118;9.992;2023-05-19T14:47:14;13.30;99.90
22503;DHT22;11418;48.118;9.992;2023-05-19T14:51:15;13.20;99.90
22503;DHT22;11418;48.118;9.992;2023-05-19T14:55:15;13.10;99.90
22503;DHT22;11418;48.118;9.992;2023-05-19T14:59:16;13.00;99.90
22503;DHT22;11418;48.118;9.992;2023-05-19T15:03:16;13.00;99.90
22503;DHT22;11418;48.118;9.992;2023-05-19T15:07:17;13.10;99.90
22503;DHT22;11418;48.118;9.992;2023-05-19T15:11:17;13.20;99.90
22503;DHT22;11418;48.118;9.992;2023-05-19T15:15:17;13.60;99.90
22503;DHT22;11418;48.118;9.992;2023-05-19T15:19:18;13.40;99.90
22503;DHT22;11418;48.118;9.992;2023-05-19T15:23:18;13.60;99.90
22503;DHT22;11418;48.118;9.992;2023-05-19T15:27:22;13.60;99.90
22503;DHT22;11418;48.118;9.992;2023-05-19T15:31:26;13.50;99.90
22503;DHT22;11418;48.118;9.992;2023-05-19T15:35:29;13.50;99.90
22503;DHT22;11418;48.118;9.992;2023-05-19T15:40:22;13.60;99.90
22503;DHT22;11418;48.118;9.992;2023-05-19T15:44:07;13.80;99.90
22503;DHT22;11418;48.118;9.992;2023-05-19T15:48:07;13.90;99.90
22503;DHT22;11418;48.118;9.992;2023-05-19T15:52:08;13.90;99.90
22503;DHT22;11418;48.118;9.992;2023-05-19T15:56:09;14.20;99.90
22503;DHT22;11418;48.118;9.992;2023-05-19T16:00:09;14.10;99.90
22503;DHT22;11418;48.118;9.992;2023-05-19T16:04:10;14.20;99.90
22503;DHT22;11418;48.118;9.992;2023-05-19T16:08:11;14.30;99.90
22503;DHT22;11418;48.118;9.992;2023-05-19T16:12:14;14.40;99.90
22503;DHT22;11418;48.118;9.992;2023-05-19T16:16:17;14.50;99.90
22503;DHT22;11418;48.118;9.992;2023-05-19T16:20:18;14.50;99.90
22503;DHT22;11418;48.118;9.992;2023-05-19T16:24:20;14.60;99.90
22503;DHT22;11418;48.118;9.992;2023-05-19T16:28:20;14.50;99.90
22503;DHT22;11418;48.118;9.992;2023-05-19T16:32:21;14.20;99.90
22503;DHT22;11418;48.118;9.992;2023-05-19T16:36:21;14.00;99.90
22503;DHT22;11418;48.118;9.992;2023-05-19T16:40:22;13.90;99.90
22503;DHT22;11418;48.118;9.992;2023-05-19T16:44:23;14.10;99.90
22503;DHT22;11418;48.118;9.992;2023-05-19T16:48:24;13.80;99.90
22503;DHT22;11418;48.118;9.992;2023-05-19T16:52:25;13.70;99.90
22503;DHT22;11418;48.118;9.992;2023-05-19T16:56:25;13.90;99.90
22503;DHT22;11418;48.118;9.992;2023-05-19T17:00:26;14.00;99.90
22503;DHT22;11418;48.118;9.992;2023-05-19T17:04:28;13.90;99.90
22503;DHT22;11418;48.118;9.992;2023-05-19T17:08:29;14.00;99.90
22503;DHT22;11418;48.118;9.992;2023-05-19T17:12:29;14.00;99.90
22503;DHT22;11418;48.118;9.992;2023-05-19T17:16:30;14.10;99.90
22503;DHT22;11418;48.118;9.992;2023-05-19T17:20:30;14.30;99.90
22503;DHT22;11418;48.118;9.992;2023-05-19T17:24:30;14.30;99.90
22503;DHT22;11418;48.118;9.992;2023-05-19T17:28:32;14.20;99.90
22503;DHT22;11418;48.118;9.992;2023-05-19T17:32:33;14.00;99.90
22503;DHT22;11418;48.118;9.992;2023-05-19T17:36:37;14.00;99.90
22503;DHT22;11418;48.118;9.992;2023-05-19T17:40:37;14.00;99.90
22503;DHT22;11418;48.118;9.992;2023-05-19T17:48:48;13.80;99.90
22503;DHT22;11418;48.118;9.992;2023-05-19T17:52:49;13.80;99.90
22503;DHT22;11418;48.118;9.992;2023-05-19T17:56:49;13.70;99.90
22503;DHT22;11418;48.118;9.992;2023-05-19T18:00:50;13.60;99.90
22503;DHT22;11418;48.118;9.992;2023-05-19T18:04:50;13.70;99.90
22503;DHT22;11418;48.118;9.992;2023-05-19T18:08:51;13.40;99.90
22503;DHT22;11418;48.118;9.992;2023-05-19T18:12:52;13.30;99.90
22503;DHT22;11418;48.118;9.992;2023-05-19T18:16:52;13.20;99.90
22503;DHT22;11418;48.118;9.992;2023-05-19T18:20:53;13.20;99.90
22503;DHT22;11418;48.118;9.992;2023-05-19T18:24:54;13.10;99.90
22503;DHT22;11418;48.118;9.992;2023-05-19T18:28:55;13.10;99.90
22503;DHT22;11418;48.118;9.992;2023-05-19T18:33:01;12.90;99.90
22503;DHT22;11418;48.118;9.992;2023-05-19T18:37:02;12.80;99.90
22503;DHT22;11418;48.118;9.992;2023-05-19T18:41:04;12.60;99.90
22503;DHT22;11418;48.118;9.992;2023-05-19T18:45:05;12.60;99.90
22503;DHT22;11418;48.118;9.992;2023-05-19T18:49:06;12.50;99.90
22503;DHT22;11418;48.118;9.992;2023-05-19T18:53:06;12.40;99.90
22503;DHT22;11418;48.118;9.992;2023-05-19T18:57:07;12.30;99.90
22503;DHT22;11418;48.118;9.992;2023-05-19T19:01:08;12.30;99.90
22503;DHT22;11418;48.118;9.992;2023-05-19T19:05:08;12.40;99.90
22503;DHT22;11418;48.118;9.992;2023-05-19T19:09:09;12.30;99.90
22503;DHT22;11418;48.118;9.992;2023-05-19T19:13:09;12.20;99.90
22503;DHT22;11418;48.118;9.992;2023-05-19T19:17:10;12.00;99.90
22503;DHT22;11418;48.118;9.992;2023-05-19T19:21:10;11.90;99.90
22503;DHT22;11418;48.118;9.992;2023-05-19T19:25:10;12.00;99.90
22503;DHT22;11418;48.118;9.992;2023-05-19T19:29:11;12.00;99.90
22503;DHT22;11418;48.118;9.992;2023-05-19T19:33:11;11.90;99.90
22503;DHT22;11418;48.118;9.992;2023-05-19T19:37:12;11.90;99.90
22503;DHT22;11418;48.118;9.992;2023-05-19T19:45:16;11.80;99.90
22503;DHT22;11418;48.118;9.992;2023-05-19T19:49:20;11.90;99.90
22503;DHT22;11418;48.118;9.992;2023-05-19T19:53:20;11.80;99.90
22503;DHT22;11418;48.118;9.992;2023-05-19T19:57:21;11.80;99.90
22503;DHT22;11418;48.118;9.992;2023-05-19T20:01:21;11.90;99.90
22503;DHT22;11418;48.118;9.992;2023-05-19T20:05:25;11.80;99.90
22503;DHT22;11418;48.118;9.992;2023-05-19T20:09:26;11.70;99.90
22503;DHT22;11418;48.118;9.992;2023-05-19T20:13:26;11.70;99.90
22503;DHT22;11418;48.118;9.992;2023-05-19T20:17:27;11.70;99.90
22503;DHT22;11418;48.118;9.992;2023-05-19T20:21:27;11.80;99.90
22503;DHT22;11418;48.118;9.992;2023-05-19T20:25:28;11.80;99.90
22503;DHT22;11418;48.118;9.992;2023-05-19T20:29:28;11.70;99.90
22503;DHT22;11418;48.118;9.992;2023-05-19T20:33:29;11.90;99.90
22503;DHT22;11418;48.118;9.992;2023-05-19T20:37:30;12.20;99.90
22503;DHT22;11418;48.118;9.992;2023-05-19T20:41:31;11.80;99.90
22503;DHT22;11418;48.118;9.992;2023-05-19T20:45:31;11.70;99.90
22503;DHT22;11418;48.118;9.992;2023-05-19T20:49:32;12.00;99.90
22503;DHT22;11418;48.118;9.992;2023-05-19T20:53:33;12.00;99.90
22503;DHT22;11418;48.118;9.992;2023-05-19T20:57:33;12.10;99.90
22503;DHT22;11418;48.118;9.992;2023-05-19T21:01:34;12.10;99.90
22503;DHT22;11418;48.118;9.992;2023-05-19T21:05:34;12.10;99.90
22503;DHT22;11418;48.118;9.992;2023-05-19T21:09:35;11.80;99.90
22503;DHT22;11418;48.118;9.992;2023-05-19T21:13:35;11.60;99.90
22503;DHT22;11418;48.118;9.992;2023-05-19T21:17:38;11.60;99.90
22503;DHT22;11418;48.118;9.992;2023-05-19T21:21:38;11.60;99.90
22503;DHT22;11418;48.118;9.992;2023-05-19T21:25:41;11.40;99.90
22503;DHT22;11418;48.118;9.992;2023-05-19T21:29:42;11.30;99.90
22503;DHT22;11418;48.118;9.992;2023-05-19T21:33:42;11.20;99.90
22503;DHT22;11418;48.118;9.992;2023-05-19T21:37:43;11.40;99.90
22503;DHT22;11418;48.118;9.992;2023-05-19T21:41:43;11.60;99.90
22503;DHT22;11418;48.118;9.992;2023-05-19T21:45:44;11.50;99.90
22503;DHT22;11418;48.118;9.992;2023-05-19T21:49:44;11.50;99.90
22503;DHT22;11418;48.118;9.992;2023-05-19T21:53:45;11.60;99.90
22503;DHT22;11418;48.118;9.992;2023-05-19T21:57:45;11.80;99.90
22503;DHT22;11418;48.118;9.992;2023-05-19T22:01:46;12.20;99.90
22503;DHT22;11418;48.118;9.992;2023-05-19T22:05:47;12.00;99.90
22503;DHT22;11418;48.118;9.992;2023-05-19T22:09:47;11.70;99.90
22503;DHT22;11418;48.118;9.992;2023-05-19T22:13:48;11.60;99.90
22503;DHT22;11418;48.118;9.992;2023-05-19T22:17:49;11.50;99.90
22503;DHT22;11418;48.118;9.992;2023-05-19T22:21:49;11.40;99.90
22503;DHT22;11418;48.118;9.992;2023-05-19T22:25:50;11.60;99.90
22503;DHT22;11418;48.118;9.992;2023-05-19T22:29:50;11.80;99.90
22503;DHT22;11418;48.118;9.992;2023-05-19T22:33:51;12.00;99.90
22503;DHT22;11418;48.118;9.992;2023-05-19T22:37:51;11.80;99.90
22503;DHT22;11418;48.118;9.992;2023-05-19T22:41:51;11.50;99.90
22503;DHT22;11418;48.118;9.992;2023-05-19T22:45:52;11.40;99.90
22503;DHT22;11418;48.118;9.992;2023-05-19T22:49:52;11.40;99.90
22503;DHT22;11418;48.118;9.992;2023-05-19T22:53:53;11.30;99.90
22503;DHT22;11418;48.118;9.992;2023-05-19T22:57:53;11.30;99.90
22503;DHT22;11418;48.118;9.992;2023-05-19T23:01:54;11.30;99.90
22503;DHT22;11418;48.118;9.992;2023-05-19T23:05:54;11.50;99.90
22503;DHT22;11418;48.118;9.992;2023-05-19T23:09:55;11.60;99.90
22503;DHT22;11418;48.118;9.992;2023-05-19T23:13:55;11.70;99.90
22503;DHT22;11418;48.118;9.992;2023-05-19T23:17:55;11.60;99.90
22503;DHT22;11418;48.118;9.992;2023-05-19T23:21:56;11.30;99.90
22503;DHT22;11418;48.118;9.992;2023-05-19T23:25:56;11.20;99.90
22503;DHT22;11418;48.118;9.992;2023-05-19T23:29:57;11.20;99.90
22503;DHT22;11418;48.118;9.992;2023-05-19T23:33:57;11.20;99.90
22503;DHT22;11418;48.118;9.992;2023-05-19T23:37:58;11.20;99.90
22503;DHT22;11418;48.118;9.992;2023-05-19T23:41:58;11.30;99.90
22503;DHT22;11418;48.118;9.992;2023-05-19T23:45:59;11.30;99.90
22503;DHT22;11418;48.118;9.992;2023-05-19T23:49:59;11.40;99.90
22503;DHT22;11418;48.118;9.992;2023-05-19T23:54:00;11.50;99.90
22503;DHT22;11418;48.118;9.992;2023-05-19T23:58:00;11.80;99.90
